TimeEDT,TemperatureF,Dew PointF,Humidity,Sea Level PressureIn,VisibilityMPH,Wind Direction,Wind SpeedMPH,Gust SpeedMPH,PrecipitationIn,Events,Conditions,WindDirDegrees,DateUTC
12:54 AM,73.9,72.0,93,30.11,10.0,Calm,Calm,-,N/A,,Clear,0,2013-07-06 04:54:00
1:54 AM,75.0,72.0,90,30.11,10.0,SW,4.6,-,N/A,,Clear,230,2013-07-06 05:54:00
2:54 AM,73.9,72.0,93,30.11,10.0,SW,4.6,-,N/A,,Clear,220,2013-07-06 06:54:00
3:54 AM,75.0,72.0,90,30.11,10.0,WSW,3.5,-,N/A,,Partly Cloudy,250,2013-07-06 07:54:00
4:54 AM,73.9,72.0,93,30.11,10.0,SW,4.6,-,N/A,,Clear,230,2013-07-06 08:54:00
5:54 AM,73.0,72.0,96,30.12,8.0,North,-9999.0,-,N/A,,Clear,0,2013-07-06 09:54:00
6:54 AM,75.9,72.0,87,30.13,10.0,SW,5.8,-,N/A,,Clear,230,2013-07-06 10:54:00
7:54 AM,79.0,73.0,82,30.13,10.0,SW,4.6,-,N/A,,Clear,220,2013-07-06 11:54:00
8:54 AM,82.0,72.0,71,30.13,10.0,West,6.9,-,N/A,,Clear,270,2013-07-06 12:54:00
9:54 AM,84.9,71.1,63,30.11,10.0,WSW,9.2,-,N/A,,Partly Cloudy,250,2013-07-06 13:54:00
10:54 AM,87.1,71.1,59,30.11,10.0,WNW,6.9,-,N/A,,Partly Cloudy,290,2013-07-06 14:54:00
11:54 AM,88.0,71.1,57,30.10,10.0,WSW,9.2,16.1,N/A,,Partly Cloudy,240,2013-07-06 15:54:00
12:54 PM,89.1,69.1,52,30.10,10.0,West,13.8,-,N/A,,Partly Cloudy,260,2013-07-06 16:54:00
1:54 PM,91.0,69.1,48,30.08,10.0,West,10.4,18.4,N/A,,Clear,260,2013-07-06 17:54:00
2:54 PM,91.0,69.1,48,30.07,10.0,WSW,10.4,-,N/A,,Clear,240,2013-07-06 18:54:00
3:54 PM,91.0,71.1,52,30.06,10.0,West,5.8,-,N/A,,Partly Cloudy,260,2013-07-06 19:54:00
4:54 PM,90.0,71.1,54,30.04,10.0,WSW,8.1,-,N/A,,Clear,250,2013-07-06 20:54:00
5:54 PM,89.1,70.0,53,30.03,10.0,West,4.6,-,N/A,,Clear,280,2013-07-06 21:54:00
6:54 PM,88.0,71.1,57,30.03,10.0,WNW,4.6,-,N/A,,Clear,300,2013-07-06 22:54:00
7:54 PM,84.0,73.9,72,30.02,8.0,Calm,Calm,-,N/A,,Clear,0,2013-07-06 23:54:00
8:54 PM,79.0,73.9,84,30.03,10.0,Calm,Calm,-,N/A,,Clear,0,2013-07-07 00:54:00
9:54 PM,78.1,73.9,87,30.05,10.0,Calm,Calm,-,N/A,,Clear,0,2013-07-07 01:54:00
10:54 PM,75.0,73.0,94,30.06,8.0,Calm,Calm,-,N/A,,Clear,0,2013-07-07 02:54:00
11:54 PM,73.9,72.0,93,30.06,4.0,SSW,3.5,-,N/A,,Clear,210,2013-07-07 03:54:00